GB-0109 weather

CLOSED RAF Banff
Aberdeenshire, Scotland, United Kingdom

Public forecast

Using degrees Celsius for public forecast. Weather courtesy of forecast.io.

METAR (pilot weather report)

Closest report is RAF Lossiemouth, 22.5 nm (41.7 km) W. Retrieved 2019/05/22 05:50 UTC (34 minutes ago):

EGQS 220550Z 25013KT 9999 -RA FEW013 BKN015 OVC030 08/07 Q1014 RERA WHT TEMPO 7000 SHRA SCT012 BKN015 GRN

TAF (pilot weather forecast)

Closest forecast is RAF Lossiemouth, 22.5 nm (41.7 km) W. Retrieved 2019/05/22 06:36 UTC (0 seconds ago):

TAF EGQS 220425Z 2206/2224 25012KT 9999 FEW018 BKN025 TEMPO 2206/2213 6000 -RA SCT018 PROB30 TEMPO 2206/2213 27015G25KT 4000 SHRA SCT010 BKN018 TEMPO 2213/2224 29017G27KT 4000 SHRA SCT015 PROB40 TEMPO 2213/2224 3000 RADZ SCT008 BKN015